Time;durP1;ratioP1;P1;durP2;ratioP2;P2;SDS_P1;SDS_P2;PMS_P1;PMS_P2;Temp;Humidity;BMP_temperature;BMP_pressure;BME280_temperature;BME280_humidity;BME280_pressure;Samples;Min_cycle;Max_cycle;Signal;HPM_P1;HPM_P2
2022/03/23 00:00:27;;;;;;;58.00;41.67;;;9.00;99.90;;;;;;4950301;29;20410;-73
2022/03/23 00:02:55;;;;;;;65.78;45.17;;;9.00;99.90;;;;;;4960530;28;20079;-73
2022/03/23 00:05:25;;;;;;;68.80;44.22;;;9.00;99.90;;;;;;4938873;29;20043;-73
2022/03/23 00:07:52;;;;;;;63.10;40.97;;;8.90;99.90;;;;;;4947118;29;20083;-74
2022/03/23 00:10:19;;;;;;;62.97;42.88;;;8.90;99.90;;;;;;4937371;29;20051;-73
2022/03/23 00:12:45;;;;;;;66.78;44.72;;;8.90;99.90;;;;;;4942560;29;20047;-73
2022/03/23 00:15:12;;;;;;;68.35;45.00;;;8.90;99.90;;;;;;4953957;28;20057;-73
2022/03/23 00:17:42;;;;;;;66.65;45.80;;;8.80;99.90;;;;;;4924676;29;20054;-73
2022/03/23 00:20:12;;;;;;;54.33;39.80;;;8.70;99.90;;;;;;4938177;29;20052;-73
2022/03/23 00:22:39;;;;;;;62.63;43.33;;;8.60;99.90;;;;;;4951609;28;20067;-73
2022/03/23 00:25:07;;;;;;;63.83;42.65;;;8.60;99.90;;;;;;4941235;28;20063;-73
2022/03/23 00:27:34;;;;;;;59.67;40.65;;;8.50;99.90;;;;;;4950890;29;20047;-72
2022/03/23 00:30:02;;;;;;;61.33;40.05;;;8.40;99.90;;;;;;4953780;28;20051;-73
2022/03/23 00:32:30;;;;;;;61.03;40.92;;;8.30;99.90;;;;;;4953948;29;20062;-72
2022/03/23 00:34:57;;;;;;;61.83;39.97;;;8.30;99.90;;;;;;4964320;28;20077;-73
2022/03/23 00:37:24;;;;;;;60.58;41.00;;;8.20;99.90;;;;;;4969489;28;20557;-73
2022/03/23 00:39:50;;;;;;;60.50;41.08;;;8.20;99.90;;;;;;4956883;28;20051;-72
2022/03/23 00:42:19;;;;;;;61.53;42.17;;;8.10;99.90;;;;;;4967582;28;20130;-73
2022/03/23 00:44:46;;;;;;;62.28;43.75;;;8.10;99.90;;;;;;4951158;29;20127;-72
2022/03/23 00:47:14;;;;;;;62.25;42.03;;;8.00;99.90;;;;;;4969897;28;20055;-72
2022/03/23 00:49:41;;;;;;;62.97;40.30;;;8.00;99.90;;;;;;4946155;28;20059;-72
2022/03/23 00:52:08;;;;;;;55.90;37.58;;;7.90;99.90;;;;;;4953712;29;20047;-73
2022/03/23 00:54:35;;;;;;;58.78;40.63;;;7.90;99.90;;;;;;4954619;28;20047;-72
2022/03/23 00:57:06;;;;;;;59.08;40.53;;;7.80;99.90;;;;;;4951367;29;20047;-72
2022/03/23 00:59:33;;;;;;;68.43;42.83;;;7.80;99.90;;;;;;4949140;29;20074;-73
2022/03/23 01:02:02;;;;;;;61.92;41.58;;;7.70;99.90;;;;;;4945898;29;20048;-72
2022/03/23 01:04:31;;;;;;;66.68;42.90;;;7.70;99.90;;;;;;4957996;28;20054;-72
2022/03/23 01:07:01;;;;;;;56.60;39.05;;;7.70;99.90;;;;;;4949797;29;20407;-72
2022/03/23 01:09:28;;;;;;;61.55;40.95;;;7.60;99.90;;;;;;4968595;28;20403;-73
2022/03/23 01:11:55;;;;;;;64.75;41.53;;;7.60;99.90;;;;;;4965984;28;20573;-73
2022/03/23 01:14:23;;;;;;;58.35;39.72;;;7.50;99.90;;;;;;4952683;29;20417;-72
2022/03/23 01:16:51;;;;;;;63.72;42.53;;;7.50;99.90;;;;;;4945281;29;20051;-72
2022/03/23 01:19:25;;;;;;;58.72;40.20;;;7.50;99.90;;;;;;4968801;28;20110;-72
2022/03/23 01:21:53;;;;;;;59.08;40.97;;;7.40;99.90;;;;;;4951953;29;20482;-73
2022/03/23 01:24:20;;;;;;;60.90;42.70;;;7.40;99.90;;;;;;4960887;28;20503;-72
2022/03/23 01:26:47;;;;;;;60.25;41.67;;;7.40;99.90;;;;;;4960474;28;20130;-73
2022/03/23 01:29:14;;;;;;;63.72;42.05;;;7.30;99.90;;;;;;4945117;28;20050;-72
2022/03/23 01:31:41;;;;;;;64.32;43.08;;;7.30;99.90;;;;;;4948332;29;20059;-73
2022/03/23 01:34:08;;;;;;;65.20;41.40;;;7.30;99.90;;;;;;4952420;28;20070;-73
2022/03/23 01:36:36;;;;;;;61.15;40.15;;;7.30;99.90;;;;;;4935692;29;20051;-72
2022/03/23 01:39:03;;;;;;;59.65;38.20;;;7.30;99.90;;;;;;4947426;29;20048;-72
2022/03/23 01:41:30;;;;;;;62.03;40.25;;;7.20;99.90;;;;;;4949518;29;20353;-72
2022/03/23 01:43:56;;;;;;;56.55;37.38;;;7.20;99.90;;;;;;4940547;29;20047;-72
2022/03/23 01:46:26;;;;;;;56.55;37.75;;;7.20;99.90;;;;;;4948508;29;20488;-72
2022/03/23 01:48:53;;;;;;;60.03;39.85;;;7.20;99.90;;;;;;4935536;29;20109;-73
2022/03/23 01:51:20;;;;;;;60.58;39.63;;;7.10;99.90;;;;;;4948219;28;20325;-72
2022/03/23 01:53:47;;;;;;;58.33;39.22;;;7.10;99.90;;;;;;4935945;28;20062;-72
2022/03/23 01:56:17;;;;;;;58.00;39.22;;;7.10;99.90;;;;;;4943242;29;20517;-72
2022/03/23 01:58:44;;;;;;;64.50;41.22;;;7.10;99.90;;;;;;4950257;29;20055;-73
2022/03/23 02:01:10;;;;;;;60.15;38.38;;;7.10;99.90;;;;;;4924902;29;20404;-74
2022/03/23 02:03:38;;;;;;;58.53;38.53;;;7.10;99.90;;;;;;4950936;29;20122;-73
2022/03/23 02:06:05;;;;;;;62.17;40.30;;;7.10;99.90;;;;;;4964826;28;20356;-72
2022/03/23 02:08:32;;;;;;;54.33;36.08;;;7.10;99.90;;;;;;4944044;29;20054;-73
2022/03/23 02:10:59;;;;;;;59.17;36.83;;;7.00;99.90;;;;;;4939779;29;20058;-72
2022/03/23 02:13:27;;;;;;;59.55;38.90;;;7.00;99.90;;;;;;4933586;29;20050;-72
2022/03/23 02:15:58;;;;;;;71.55;44.47;;;6.90;99.90;;;;;;4942738;29;20108;-72
2022/03/23 02:18:25;;;;;;;61.55;40.17;;;6.90;99.90;;;;;;4954698;28;20078;-72
2022/03/23 02:20:52;;;;;;;56.92;39.17;;;6.90;99.90;;;;;;4935197;29;20054;-72
2022/03/23 02:23:19;;;;;;;62.75;40.60;;;6.90;99.90;;;;;;4942974;29;20047;-72
2022/03/23 02:25:46;;;;;;;64.22;40.13;;;6.90;99.90;;;;;;4949537;29;20655;-72
2022/03/23 02:28:14;;;;;;;59.42;38.40;;;6.90;99.90;;;;;;4948318;29;20430;-72
2022/03/23 02:30:41;;;;;;;58.40;39.10;;;6.90;99.90;;;;;;4940732;28;20067;-72
2022/03/23 02:33:09;;;;;;;60.65;40.53;;;6.80;99.90;;;;;;4966230;28;20153;-72
2022/03/23 02:35:36;;;;;;;61.78;40.20;;;6.80;99.90;;;;;;4940034;29;20077;-72
2022/03/23 02:38:03;;;;;;;61.63;39.28;;;6.80;99.90;;;;;;4944050;28;20051;-72
2022/03/23 02:40:30;;;;;;;62.58;41.28;;;6.80;99.90;;;;;;4948544;28;20495;-72
2022/03/23 02:42:57;;;;;;;60.13;39.40;;;6.70;99.90;;;;;;4950541;28;20061;-72
2022/03/23 02:45:24;;;;;;;63.75;39.95;;;6.70;99.90;;;;;;4957511;28;20047;-72
2022/03/23 02:47:51;;;;;;;61.20;39.55;;;6.70;99.90;;;;;;4967824;28;20404;-72
2022/03/23 02:50:18;;;;;;;59.40;39.38;;;6.60;99.90;;;;;;4971011;28;20051;-72
2022/03/23 03:01:52;;;;;;;56.00;34.05;;;6.50;99.90;;;;;;4903559;29;20465;-73
2022/03/23 03:04:20;;;;;;;62.22;40.03;;;6.50;99.90;;;;;;4953099;29;20128;-72
2022/03/23 03:06:47;;;;;;;57.65;36.70;;;6.50;99.90;;;;;;4970243;28;20486;-72
2022/03/23 03:09:19;;;;;;;56.75;37.30;;;6.40;99.90;;;;;;4947489;28;20047;-73
2022/03/23 03:11:47;;;;;;;51.67;35.40;;;6.40;99.90;;;;;;4939704;29;20101;-72
2022/03/23 03:14:14;;;;;;;60.53;38.20;;;6.30;99.90;;;;;;4963104;28;20049;-72
2022/03/23 03:16:41;;;;;;;55.42;36.80;;;6.30;99.90;;;;;;4938417;28;20051;-71
2022/03/23 03:19:09;;;;;;;62.35;36.67;;;6.30;99.90;;;;;;4951932;29;20527;-72
2022/03/23 03:21:37;;;;;;;61.33;38.47;;;6.30;99.90;;;;;;4937112;29;20496;-72
2022/03/23 03:24:05;;;;;;;61.40;39.00;;;6.30;99.90;;;;;;4947585;28;20051;-72
2022/03/23 03:26:32;;;;;;;54.72;35.92;;;6.30;99.90;;;;;;4942355;29;20471;-73
2022/03/23 03:28:59;;;;;;;60.92;38.40;;;6.20;99.90;;;;;;4955035;28;20055;-73
2022/03/23 03:31:26;;;;;;;59.92;39.47;;;6.20;99.90;;;;;;4958248;28;20529;-73
2022/03/23 03:33:53;;;;;;;56.45;37.67;;;6.20;99.90;;;;;;4961362;28;20059;-72
2022/03/23 03:36:20;;;;;;;56.92;37.15;;;6.10;99.90;;;;;;4947492;29;20754;-72
2022/03/23 03:38:47;;;;;;;57.47;36.75;;;6.10;99.90;;;;;;4968252;28;20055;-73
2022/03/23 03:41:14;;;;;;;57.20;36.95;;;6.10;99.90;;;;;;4967426;28;20054;-72
2022/03/23 03:43:41;;;;;;;59.53;38.35;;;6.10;99.90;;;;;;4952795;29;20058;-73
2022/03/23 03:46:08;;;;;;;63.28;39.15;;;6.10;99.90;;;;;;4964868;28;20082;-72
2022/03/23 03:48:35;;;;;;;58.83;39.03;;;6.10;99.90;;;;;;4947117;29;20039;-72
2022/03/23 03:51:08;;;;;;;60.42;38.80;;;6.00;99.90;;;;;;4962900;28;20058;-73
2022/03/23 03:53:35;;;;;;;63.13;39.28;;;6.00;99.90;;;;;;4944060;29;20043;-72
2022/03/23 03:56:07;;;;;;;59.72;36.22;;;5.90;99.90;;;;;;4951783;29;20095;-72
2022/03/23 03:58:34;;;;;;;65.03;40.58;;;5.90;99.90;;;;;;4945122;29;20050;-73
2022/03/23 04:01:01;;;;;;;65.63;39.28;;;5.90;99.90;;;;;;4954390;28;20050;-72
2022/03/23 04:03:29;;;;;;;55.97;35.42;;;5.90;99.90;;;;;;4936861;28;20051;-73
2022/03/23 04:05:55;;;;;;;61.72;40.63;;;5.90;99.90;;;;;;4950914;28;20050;-72
2022/03/23 04:08:22;;;;;;;54.53;36.83;;;5.80;99.90;;;;;;4953431;28;20047;-67
2022/03/23 04:10:50;;;;;;;57.25;38.05;;;5.80;99.90;;;;;;4956555;28;20099;-73
2022/03/23 04:13:18;;;;;;;55.15;35.47;;;5.80;99.90;;;;;;4944998;29;20412;-72
2022/03/23 04:15:46;;;;;;;62.55;37.83;;;5.70;99.90;;;;;;4944316;29;20062;-73
2022/03/23 04:18:13;;;;;;;52.80;35.03;;;5.70;99.90;;;;;;4952606;28;20082;-73
2022/03/23 04:20:40;;;;;;;59.25;38.90;;;5.70;99.90;;;;;;4901804;29;1183560;-72
2022/03/23 04:23:07;;;;;;;59.10;37.78;;;5.70;99.90;;;;;;4953383;28;20047;-73
2022/03/23 04:25:34;;;;;;;57.78;35.65;;;5.70;99.90;;;;;;4951568;29;20122;-73
2022/03/23 04:28:01;;;;;;;55.92;36.38;;;5.70;99.90;;;;;;4937320;29;20503;-75
2022/03/23 04:30:30;;;;;;;54.05;35.58;;;5.70;99.90;;;;;;4967375;28;20415;-74
2022/03/23 04:32:57;;;;;;;51.33;33.88;;;5.60;99.90;;;;;;4952501;29;20055;-73
2022/03/23 04:35:24;;;;;;;53.88;34.80;;;5.50;99.90;;;;;;4955052;28;20047;-73
2022/03/23 04:37:54;;;;;;;53.35;33.63;;;5.50;99.90;;;;;;4969431;28;20047;-73
2022/03/23 04:40:22;;;;;;;49.65;34.83;;;5.50;99.90;;;;;;4957550;28;20054;-73
2022/03/23 04:42:49;;;;;;;53.85;35.00;;;5.40;99.90;;;;;;4942909;28;20487;-72
2022/03/23 04:45:17;;;;;;;56.13;35.38;;;5.40;99.90;;;;;;4952634;29;20043;-72
2022/03/23 04:47:44;;;;;;;49.97;33.72;;;5.40;99.90;;;;;;4945502;29;20055;-73
2022/03/23 04:50:12;;;;;;;53.28;34.08;;;5.30;99.90;;;;;;4965739;28;20142;-73
2022/03/23 04:52:43;;;;;;;54.75;35.20;;;5.30;99.90;;;;;;4952816;28;20079;-74
2022/03/23 04:55:10;;;;;;;58.67;35.33;;;5.30;99.90;;;;;;4946862;28;20482;-72
2022/03/23 04:57:37;;;;;;;54.35;34.20;;;5.20;99.90;;;;;;4936893;29;20067;-73
2022/03/23 05:00:08;;;;;;;56.38;34.38;;;5.20;99.90;;;;;;4947708;29;20047;-73
2022/03/23 05:02:42;;;;;;;51.72;34.83;;;5.20;99.90;;;;;;4957550;28;20051;-72
2022/03/23 05:05:13;;;;;;;50.85;34.22;;;5.20;99.90;;;;;;4949484;28;20063;-72
2022/03/23 05:07:41;;;;;;;50.78;33.90;;;5.20;99.90;;;;;;4949450;29;20058;-73
2022/03/23 05:10:12;;;;;;;56.05;34.85;;;5.10;99.90;;;;;;4941645;29;20055;-72
2022/03/23 05:12:41;;;;;;;53.92;33.60;;;5.10;99.90;;;;;;4949208;29;20062;-72
2022/03/23 05:15:08;;;;;;;55.55;34.72;;;5.10;99.90;;;;;;4956191;28;20051;-72
2022/03/23 05:17:38;;;;;;;52.08;36.17;;;5.10;99.90;;;;;;4944607;29;20043;-72
2022/03/23 05:20:09;;;;;;;53.28;33.42;;;5.10;99.90;;;;;;4941290;29;20051;-72
2022/03/23 05:22:40;;;;;;;;;;;5.00;99.90;;;;;;4944362;29;20051;-72
2022/03/23 05:25:09;;;;;;;46.53;29.70;;;5.00;99.90;;;;;;4950625;29;19922;-73
2022/03/23 05:27:37;;;;;;;53.95;35.78;;;4.90;99.90;;;;;;4921210;29;20511;-73
2022/03/23 05:30:07;;;;;;;55.45;34.03;;;4.90;99.90;;;;;;4930057;29;20066;-72
2022/03/23 05:32:34;;;;;;;52.83;34.42;;;4.90;99.90;;;;;;4936899;29;20071;-73
2022/03/23 05:35:01;;;;;;;47.22;33.15;;;4.90;99.90;;;;;;4952236;29;20107;-73
2022/03/23 05:37:28;;;;;;;50.03;32.92;;;4.90;99.90;;;;;;4946813;29;20043;-72
2022/03/23 05:39:57;;;;;;;53.07;33.57;;;4.90;99.90;;;;;;4954306;28;20055;-73
2022/03/23 05:42:24;;;;;;;54.72;33.38;;;4.90;99.90;;;;;;4952109;29;20774;-73
2022/03/23 05:44:51;;;;;;;50.60;32.70;;;4.90;99.90;;;;;;4939618;28;20393;-73
2022/03/23 05:47:18;;;;;;;52.55;33.90;;;4.90;99.90;;;;;;4936450;29;20407;-72
2022/03/23 05:49:44;;;;;;;57.80;35.85;;;4.90;99.90;;;;;;4943155;29;20051;-73
2022/03/23 05:52:12;;;;;;;57.05;33.90;;;4.90;99.90;;;;;;4953949;28;20102;-73
2022/03/23 05:54:40;;;;;;;54.00;32.70;;;4.90;99.90;;;;;;4954370;28;20067;-72
2022/03/23 05:57:07;;;;;;;53.35;33.38;;;4.90;99.90;;;;;;4951148;29;20074;-73
2022/03/23 05:59:34;;;;;;;55.75;32.80;;;4.90;99.90;;;;;;4934191;29;20047;-73
2022/03/23 06:02:05;;;;;;;50.70;32.97;;;4.80;99.90;;;;;;4953090;29;20054;-73
2022/03/23 06:04:32;;;;;;;59.35;34.80;;;4.80;99.90;;;;;;4934320;29;20044;-73
2022/03/23 06:06:59;;;;;;;51.10;30.77;;;4.80;99.90;;;;;;4935110;29;20052;-73
2022/03/23 06:09:26;;;;;;;47.30;33.22;;;4.80;99.90;;;;;;4950703;29;20081;-73
2022/03/23 06:11:53;;;;;;;51.28;32.65;;;4.80;99.90;;;;;;4943168;29;20082;-73
2022/03/23 06:14:22;;;;;;;58.65;36.53;;;4.80;99.90;;;;;;4967465;28;20130;-73
2022/03/23 06:16:52;;;;;;;60.67;35.75;;;4.90;99.90;;;;;;4960384;28;20051;-73
2022/03/23 06:19:19;;;;;;;57.25;34.70;;;4.90;99.90;;;;;;4939019;29;20055;-73
2022/03/23 06:21:46;;;;;;;67.15;39.28;;;4.90;99.90;;;;;;4945465;29;20139;-73
2022/03/23 06:24:14;;;;;;;58.55;35.30;;;4.90;99.90;;;;;;4953612;29;20057;-73
2022/03/23 06:26:44;;;;;;;61.97;35.47;;;5.00;99.90;;;;;;4945332;29;20137;-73
2022/03/23 06:29:11;;;;;;;54.30;34.60;;;5.00;99.90;;;;;;4943086;29;20052;-73
2022/03/23 06:31:37;;;;;;;59.03;35.83;;;5.00;99.90;;;;;;4953067;28;20082;-72
2022/03/23 06:34:05;;;;;;;62.78;38.47;;;5.10;99.90;;;;;;4937775;28;20055;-73
2022/03/23 06:36:32;;;;;;;57.63;35.65;;;5.10;99.90;;;;;;4948771;29;20078;-73
2022/03/23 06:38:58;;;;;;;66.68;39.38;;;5.10;99.90;;;;;;4948805;29;20059;-73
2022/03/23 06:41:25;;;;;;;64.18;39.30;;;5.20;99.90;;;;;;4949122;29;20411;-73
2022/03/23 06:43:53;;;;;;;65.63;40.58;;;5.30;99.90;;;;;;4949820;29;20078;-73
2022/03/23 06:46:20;;;;;;;68.70;39.20;;;5.30;99.90;;;;;;4936841;29;20553;-73
2022/03/23 06:48:47;;;;;;;66.38;37.40;;;5.40;99.90;;;;;;4951768;29;20057;-69
2022/03/23 06:51:14;;;;;;;69.57;40.95;;;5.40;99.90;;;;;;4952047;29;20423;-66
2022/03/23 06:53:42;;;;;;;125.82;80.28;;;5.50;99.90;;;;;;4952039;28;20062;-71
2022/03/23 06:56:09;;;;;;;163.45;99.18;;;5.60;99.90;;;;;;4935135;29;20142;-70
2022/03/23 06:58:37;;;;;;;88.78;55.13;;;5.60;99.90;;;;;;4950012;29;20491;-71
2022/03/23 07:01:04;;;;;;;79.45;47.05;;;5.70;99.90;;;;;;4962986;28;20055;-73
2022/03/23 07:03:31;;;;;;;63.63;42.65;;;5.70;99.90;;;;;;4971329;28;20078;-75
2022/03/23 07:05:58;;;;;;;71.65;43.53;;;5.80;99.90;;;;;;4969621;28;20059;-75
2022/03/23 07:11:10;;;;;;;171.68;105.57;;;5.90;99.90;;;;;;4961101;28;20049;-66
2022/03/23 07:13:37;;;;;;;89.07;56.50;;;6.00;99.90;;;;;;4959425;28;20054;-71
2022/03/23 07:16:04;;;;;;;75.60;50.28;;;6.10;99.90;;;;;;4947794;29;20051;-74
2022/03/23 07:18:32;;;;;;;71.90;43.35;;;6.20;99.90;;;;;;4942573;29;20047;-75
2022/03/23 07:21:02;;;;;;;68.00;42.58;;;6.20;99.90;;;;;;4951956;29;20059;-73
2022/03/23 07:23:30;;;;;;;68.38;42.40;;;6.30;99.90;;;;;;4953522;28;20059;-74
2022/03/23 07:25:59;;;;;;;76.60;46.50;;;6.40;99.90;;;;;;4952246;28;20102;-74
2022/03/23 07:28:26;;;;;;;67.63;43.13;;;6.50;99.90;;;;;;4955486;29;20062;-72
2022/03/23 07:30:54;;;;;;;65.45;43.25;;;6.60;99.90;;;;;;4956713;29;20051;-74
2022/03/23 07:33:21;;;;;;;75.15;46.05;;;6.60;99.90;;;;;;4955278;29;20139;-72
2022/03/23 07:35:48;;;;;;;73.53;43.92;;;6.70;99.90;;;;;;4955740;28;20047;-49
2022/03/23 07:38:15;;;;;;;71.78;46.33;;;6.90;99.90;;;;;;4956191;29;20078;-52
2022/03/23 07:40:42;;;;;;;73.70;47.08;;;7.00;99.90;;;;;;4945072;29;20047;-77
2022/03/23 07:43:09;;;;;;;84.93;50.58;;;7.10;99.90;;;;;;4938237;29;20488;-76
2022/03/23 07:45:38;;;;;;;88.43;47.60;;;7.20;99.90;;;;;;4938187;29;20055;-76
2022/03/23 07:48:05;;;;;;;79.63;50.30;;;7.30;99.90;;;;;;4938890;29;20051;-76
2022/03/23 07:50:32;;;;;;;85.13;51.63;;;7.40;99.90;;;;;;4958196;28;20122;-76
2022/03/23 07:52:59;;;;;;;76.75;46.92;;;7.60;99.90;;;;;;4939551;28;20081;-75
2022/03/23 07:55:27;;;;;;;79.55;49.30;;;7.60;99.90;;;;;;4936410;29;20062;-74
2022/03/23 07:57:54;;;;;;;76.40;48.45;;;7.80;99.90;;;;;;4955883;29;20551;-73
2022/03/23 08:00:21;;;;;;;80.28;47.28;;;7.90;99.90;;;;;;4946721;29;20040;-73
2022/03/23 08:02:50;;;;;;;80.22;48.58;;;8.00;99.90;;;;;;4969796;28;20514;-71
2022/03/23 08:05:18;;;;;;;81.20;48.88;;;8.00;99.90;;;;;;4954194;29;20050;-72
2022/03/23 08:07:45;;;;;;;78.40;49.17;;;8.20;99.90;;;;;;4956245;28;20059;-73
2022/03/23 08:10:12;;;;;;;89.18;49.80;;;8.30;99.90;;;;;;4964974;28;20484;-73
2022/03/23 08:12:39;;;;;;;84.20;52.17;;;8.40;99.90;;;;;;4955923;28;20057;-75
2022/03/23 08:15:07;;;;;;;73.43;49.67;;;8.50;99.90;;;;;;4951955;28;20043;-75
2022/03/23 08:17:38;;;;;;;77.72;52.42;;;8.70;99.90;;;;;;4941762;29;20542;-76
2022/03/23 08:23:26;;;;;;;77.57;50.80;;;9.00;99.90;;;;;;4937475;29;20090;-77
2022/03/23 08:25:53;;;;;;;76.75;48.08;;;9.20;99.90;;;;;;4950020;29;20055;-74
2022/03/23 08:28:21;;;;;;;83.13;50.55;;;9.40;99.90;;;;;;4951640;29;20054;-75
2022/03/23 08:30:48;;;;;;;72.15;47.17;;;9.60;99.90;;;;;;4940500;29;20067;-77
2022/03/23 08:33:15;;;;;;;68.95;47.35;;;9.70;99.90;;;;;;4954777;29;20506;-75
2022/03/23 08:35:47;;;;;;;67.30;46.75;;;9.90;99.90;;;;;;4948656;29;20470;-71
2022/03/23 08:38:15;;;;;;;68.53;46.47;;;10.10;99.90;;;;;;4940143;29;20055;-77
2022/03/23 08:40:42;;;;;;;73.93;47.75;;;10.20;99.90;;;;;;4935106;29;20521;-77
2022/03/23 08:43:09;;;;;;;73.07;45.92;;;10.30;99.90;;;;;;4969943;28;20135;-74
2022/03/23 08:45:36;;;;;;;70.38;47.47;;;10.30;99.90;;;;;;4949271;29;20159;-63
2022/03/23 08:48:04;;;;;;;69.30;45.03;;;10.40;99.90;;;;;;4942442;28;20062;-63
2022/03/23 08:50:31;;;;;;;64.80;42.85;;;10.60;99.90;;;;;;4944562;29;20134;-72
2022/03/23 08:53:00;;;;;;;60.08;39.40;;;10.70;99.90;;;;;;4959105;28;20047;-72
2022/03/23 08:55:30;;;;;;;109.05;79.13;;;10.80;99.90;;;;;;4971146;28;20122;-76
2022/03/23 08:57:57;;;;;;;75.05;51.78;;;10.90;99.90;;;;;;4958485;29;20111;-75
2022/03/23 09:00:24;;;;;;;55.20;35.70;;;11.10;99.90;;;;;;4960931;29;20110;-73
2022/03/23 09:02:52;;;;;;;55.78;37.25;;;11.30;99.90;;;;;;4978359;28;20051;-75
2022/03/23 09:05:19;;;;;;;58.25;39.30;;;11.40;99.90;;;;;;4960137;28;20411;-73
2022/03/23 09:07:46;;;;;;;53.47;35.70;;;11.50;99.90;;;;;;4966743;28;20126;-76
2022/03/23 09:10:15;;;;;;;53.72;35.50;;;11.60;99.60;;;;;;4966656;28;20057;-77
2022/03/23 09:12:43;;;;;;;59.50;37.95;;;11.60;97.00;;;;;;4964155;29;20061;-76
2022/03/23 09:15:11;;;;;;;56.20;38.47;;;11.70;96.50;;;;;;4954276;28;20055;-78
2022/03/23 09:17:40;;;;;;;52.67;39.33;;;11.70;97.30;;;;;;4950076;29;20074;-77
2022/03/23 09:20:09;;;;;;;53.63;38.10;;;11.80;97.80;;;;;;4952197;28;20055;-64
2022/03/23 09:22:36;;;;;;;55.15;40.72;;;11.90;96.10;;;;;;4928670;29;20127;-75
2022/03/23 09:25:04;;;;;;;57.25;38.17;;;12.00;96.30;;;;;;4969730;28;20059;-76
2022/03/23 09:27:35;;;;;;;61.63;41.47;;;12.00;95.40;;;;;;4949177;29;20055;-74
2022/03/23 09:30:03;;;;;;;54.38;37.78;;;12.10;95.40;;;;;;4947749;29;20059;-74
2022/03/23 09:32:30;;;;;;;55.85;37.67;;;12.20;95.00;;;;;;4940832;29;20047;-75
2022/03/23 09:34:57;;;;;;;55.25;37.70;;;12.20;96.50;;;;;;4947201;29;20054;-72
2022/03/23 09:40:10;;;;;;;58.65;40.40;;;12.50;95.50;;;;;;4944646;28;20078;-70
2022/03/23 09:42:38;;;;;;;54.35;39.78;;;12.60;95.60;;;;;;4954113;28;20047;-70
2022/03/23 09:45:05;;;;;;;52.58;35.83;;;12.70;95.50;;;;;;4952321;29;20047;-72
2022/03/23 09:47:32;;;;;;;53.38;34.45;;;12.80;94.90;;;;;;4952576;29;20491;-71
2022/03/23 09:49:59;;;;;;;54.78;36.85;;;12.80;93.70;;;;;;4956025;28;20145;-71
2022/03/23 09:52:28;;;;;;;56.83;35.78;;;13.00;93.20;;;;;;4955138;28;20482;-72
2022/03/23 09:54:55;;;;;;;50.22;34.47;;;13.10;94.00;;;;;;4967831;28;20051;-73
2022/03/23 09:57:22;;;;;;;53.45;33.92;;;13.20;93.10;;;;;;4963877;28;20051;-71
2022/03/23 09:59:49;;;;;;;50.00;33.75;;;13.20;91.60;;;;;;4962466;28;20067;-70
2022/03/23 10:02:40;;;;;;;48.20;32.28;;;13.30;90.70;;;;;;4917718;29;20047;-71
2022/03/23 10:05:29;;;;;;;50.92;31.88;;;13.50;86.70;;;;;;4943518;28;20562;-70
2022/03/23 10:08:09;;;;;;;53.03;33.38;;;13.70;85.40;;;;;;4956977;28;20050;-70
2022/03/23 10:11:15;;;;;;;41.15;28.00;;;13.90;83.60;;;;;;4963175;28;20471;-70
2022/03/23 10:14:20;;;;;;;41.60;27.20;;;13.90;77.60;;;;;;4959386;28;20078;-71
2022/03/23 10:17:25;;;;;;;39.75;26.95;;;14.20;78.80;;;;;;4952382;29;20055;-71
2022/03/23 10:19:53;;;;;;;39.03;25.73;;;14.20;79.90;;;;;;4953577;28;20055;-70
2022/03/23 10:22:25;;;;;;;38.10;26.70;;;14.20;80.30;;;;;;4952164;29;20158;-70
2022/03/23 10:24:55;;;;;;;37.15;23.48;;;14.20;79.30;;;;;;4952738;29;20043;-71
2022/03/23 10:27:25;;;;;;;39.88;25.17;;;14.20;74.70;;;;;;4923200;29;20098;-70
2022/03/23 10:29:53;;;;;;;38.28;24.80;;;14.30;73.60;;;;;;4954230;28;20047;-71
2022/03/23 10:32:23;;;;;;;35.03;25.00;;;14.50;75.40;;;;;;4946601;28;20058;-70
2022/03/23 10:34:55;;;;;;;36.35;24.85;;;14.60;74.90;;;;;;4932114;29;20403;-71
2022/03/23 10:37:31;;;;;;;38.50;26.55;;;14.80;76.40;;;;;;4952331;28;20406;-71
2022/03/23 10:40:01;;;;;;;35.72;24.58;;;14.90;73.70;;;;;;4962606;28;20077;-70
2022/03/23 10:42:32;;;;;;;32.05;23.65;;;14.90;72.80;;;;;;4945366;28;20356;-70
2022/03/23 10:45:16;;;;;;;35.78;24.42;;;14.90;75.50;;;;;;4945348;28;20042;-70
2022/03/23 10:47:44;;;;;;;32.28;23.10;;;15.00;67.70;;;;;;4958647;28;20051;-71
2022/03/23 10:50:19;;;;;;;32.00;23.75;;;15.20;72.00;;;;;;4961658;28;20121;-69
2022/03/23 10:52:56;;;;;;;26.50;18.80;;;15.30;66.80;;;;;;4958807;28;20133;-70
2022/03/23 10:55:24;;;;;;;23.85;16.83;;;15.40;69.30;;;;;;4949665;28;20058;-71
2022/03/23 10:57:51;;;;;;;23.63;17.92;;;15.50;65.70;;;;;;4936580;29;20479;-69
2022/03/23 11:00:35;;;;;;;25.52;16.17;;;15.70;66.40;;;;;;4952906;28;20055;-70
2022/03/23 11:03:03;;;;;;;28.30;20.33;;;15.90;63.00;;;;;;4938689;29;20063;-71
2022/03/23 11:05:34;;;;;;;28.67;20.27;;;16.00;62.40;;;;;;4924026;29;20094;-69
2022/03/23 11:08:25;;;;;;;30.98;20.80;;;15.90;61.30;;;;;;4955875;29;20066;-70
2022/03/23 11:16:47;;;;;;;27.15;19.35;;;15.70;64.60;;;;;;4897588;28;20060;-71
2022/03/23 11:19:18;;;;;;;24.27;17.92;;;15.80;64.10;;;;;;4955201;29;20051;-70
2022/03/23 11:21:59;;;;;;;;;;;15.80;66.00;;;;;;4957088;28;20059;-69
2022/03/23 11:24:27;;;;;;;22.73;17.70;;;15.80;60.80;;;;;;4955143;29;20327;-70
2022/03/23 11:26:57;;;;;;;31.67;19.70;;;15.80;65.20;;;;;;4955224;29;20134;-69
2022/03/23 11:29:24;;;;;;;24.65;18.10;;;16.00;63.50;;;;;;4954968;29;20051;-70
2022/03/23 11:31:55;;;;;;;29.15;18.40;;;16.00;62.90;;;;;;4955035;29;20062;-69
2022/03/23 11:34:23;;;;;;;22.50;16.13;;;16.10;58.20;;;;;;4959911;28;20435;-69
2022/03/23 11:36:51;;;;;;;22.95;15.85;;;16.20;58.10;;;;;;4956634;28;20063;-70
2022/03/23 11:39:22;;;;;;;18.95;13.48;;;16.30;58.60;;;;;;4954965;29;20088;-69
2022/03/23 11:41:51;;;;;;;20.55;13.43;;;16.50;57.30;;;;;;4970959;28;20182;-69
2022/03/23 11:44:22;;;;;;;22.13;15.80;;;16.60;56.90;;;;;;4954743;29;20157;-70
2022/03/23 11:46:49;;;;;;;23.90;14.90;;;16.80;54.80;;;;;;4970988;28;20066;-70
2022/03/23 11:49:31;;;;;;;19.58;13.48;;;16.80;56.70;;;;;;4956120;28;20054;-69
2022/03/23 11:52:10;;;;;;;24.70;15.52;;;16.80;54.90;;;;;;4954220;29;20102;-70
2022/03/23 11:57:56;;;;;;;18.13;13.93;;;16.70;52.70;;;;;;4956695;28;20051;-75
2022/03/23 12:00:27;;;;;;;21.30;13.48;;;16.80;52.70;;;;;;4942663;28;20047;-72
2022/03/23 12:02:54;;;;;;;22.20;15.15;;;16.80;53.40;;;;;;4949240;29;20055;-71
2022/03/23 12:05:25;;;;;;;18.55;14.95;;;16.80;53.40;;;;;;4940135;29;20406;-72
2022/03/23 12:07:53;;;;;;;22.33;14.23;;;16.90;52.20;;;;;;4943008;29;20123;-70
2022/03/23 12:10:21;;;;;;;21.42;15.05;;;16.80;53.30;;;;;;4954546;28;20051;-69
2022/03/23 12:12:48;;;;;;;16.35;12.75;;;16.90;54.10;;;;;;4952831;28;20130;-70
2022/03/23 12:15:28;;;;;;;16.00;10.75;;;16.90;54.90;;;;;;4931729;29;20077;-73
2022/03/23 12:17:55;;;;;;;17.13;11.82;;;17.20;52.30;;;;;;4951436;29;20063;-49
2022/03/23 12:20:29;;;;;;;16.77;11.85;;;17.20;54.40;;;;;;4948842;29;20063;-64
2022/03/23 12:23:25;;;;;;;16.27;11.37;;;17.30;50.80;;;;;;4954861;28;20069;-66
2022/03/23 12:26:21;;;;;;;15.02;10.55;;;17.40;53.40;;;;;;4952932;28;20088;-65
2022/03/23 12:29:02;;;;;;;17.10;11.43;;;17.50;52.80;;;;;;4938671;29;20134;-65
2022/03/23 12:31:38;;;;;;;13.40;10.05;;;17.50;53.20;;;;;;4954691;29;20051;-64
2022/03/23 12:34:25;;;;;;;14.32;10.45;;;17.60;51.60;;;;;;4954579;29;20138;-66
2022/03/23 12:36:59;;;;;;;17.38;11.70;;;17.60;53.40;;;;;;4955255;28;20055;-65
2022/03/23 12:39:37;;;;;;;17.40;11.32;;;17.80;54.00;;;;;;4969391;28;20515;-65
2022/03/23 12:42:15;;;;;;;12.07;10.20;;;17.90;49.50;;;;;;4955117;28;20055;-68
2022/03/23 12:44:42;;;;;;;16.98;11.70;;;17.90;53.00;;;;;;4948647;28;20087;-72
2022/03/23 12:47:20;;;;;;;16.35;9.73;;;17.90;53.60;;;;;;4969767;28;20051;-68
2022/03/23 12:58:19;;;;;;;16.45;10.50;;;18.00;48.30;;;;;;4936749;28;20059;-68
2022/03/23 13:00:47;;;;;;;16.50;9.63;;;17.80;48.80;;;;;;4948529;29;20051;-69
2022/03/23 13:03:15;;;;;;;15.52;9.70;;;17.90;49.80;;;;;;4953732;29;20062;-68
2022/03/23 13:06:00;;;;;;;16.63;10.82;;;17.90;50.50;;;;;;4952554;28;20423;-69
2022/03/23 13:08:30;;;;;;;16.20;9.73;;;18.00;48.40;;;;;;4948631;29;20522;-68
2022/03/23 13:10:58;;;;;;;16.08;10.70;;;18.10;49.00;;;;;;4943488;28;20059;-69
2022/03/23 13:13:26;;;;;;;17.50;10.23;;;18.00;49.50;;;;;;4949582;29;20054;-68
2022/03/23 13:15:53;;;;;;;13.83;10.00;;;18.00;49.50;;;;;;4936775;29;20047;-68
2022/03/23 13:18:24;;;;;;;14.90;9.80;;;18.00;48.40;;;;;;4941539;29;20069;-67